sensor_id;sensor_type;location;lat;lon;timestamp;P1;durP1;ratioP1;P2;durP2;ratioP2
48014;SDS011;33780;51.034;7.120;2022-07-04T00:00:00;2.75;;;1.00;;
48014;SDS011;33780;51.034;7.120;2022-07-04T00:02:26;2.47;;;1.10;;
48014;SDS011;33780;51.034;7.120;2022-07-04T00:04:51;4.03;;;0.80;;
48014;SDS011;33780;51.034;7.120;2022-07-04T00:07:17;2.15;;;0.80;;
48014;SDS011;33780;51.034;7.120;2022-07-04T00:09:42;1.65;;;0.88;;
48014;SDS011;33780;51.034;7.120;2022-07-04T00:12:08;2.50;;;1.05;;
48014;SDS011;33780;51.034;7.120;2022-07-04T00:14:33;1.85;;;0.95;;
48014;SDS011;33780;51.034;7.120;2022-07-04T00:16:59;4.43;;;1.00;;
48014;SDS011;33780;51.034;7.120;2022-07-04T00:19:24;1.65;;;1.00;;
48014;SDS011;33780;51.034;7.120;2022-07-04T00:21:50;2.00;;;0.90;;
48014;SDS011;33780;51.034;7.120;2022-07-04T00:24:15;1.80;;;0.90;;
48014;SDS011;33780;51.034;7.120;2022-07-04T00:26:40;1.65;;;0.85;;
48014;SDS011;33780;51.034;7.120;2022-07-04T00:29:06;1.83;;;0.90;;
48014;SDS011;33780;51.034;7.120;2022-07-04T00:31:31;3.30;;;0.80;;
48014;SDS011;33780;51.034;7.120;2022-07-04T00:33:57;2.70;;;0.93;;
48014;SDS011;33780;51.034;7.120;2022-07-04T00:36:22;1.80;;;1.00;;
48014;SDS011;33780;51.034;7.120;2022-07-04T00:38:48;1.50;;;0.90;;
48014;SDS011;33780;51.034;7.120;2022-07-04T00:41:13;2.20;;;0.95;;
48014;SDS011;33780;51.034;7.120;2022-07-04T00:43:38;2.65;;;0.80;;
48014;SDS011;33780;51.034;7.120;2022-07-04T00:46:04;1.38;;;0.80;;
48014;SDS011;33780;51.034;7.120;2022-07-04T00:48:36;2.00;;;0.90;;
48014;SDS011;33780;51.034;7.120;2022-07-04T00:51:01;1.50;;;0.70;;
48014;SDS011;33780;51.034;7.120;2022-07-04T00:53:26;2.28;;;0.95;;
48014;SDS011;33780;51.034;7.120;2022-07-04T00:55:52;2.40;;;0.82;;
48014;SDS011;33780;51.034;7.120;2022-07-04T00:58:21;1.50;;;0.90;;
48014;SDS011;33780;51.034;7.120;2022-07-04T01:00:48;2.25;;;0.90;;
48014;SDS011;33780;51.034;7.120;2022-07-04T01:03:14;1.73;;;1.10;;
48014;SDS011;33780;51.034;7.120;2022-07-04T01:05:39;2.97;;;0.82;;
48014;SDS011;33780;51.034;7.120;2022-07-04T01:08:06;2.83;;;1.00;;
48014;SDS011;33780;51.034;7.120;2022-07-04T01:10:32;2.35;;;0.80;;
48014;SDS011;33780;51.034;7.120;2022-07-04T01:12:57;2.90;;;1.05;;
48014;SDS011;33780;51.034;7.120;2022-07-04T01:15:22;2.13;;;0.98;;
48014;SDS011;33780;51.034;7.120;2022-07-04T01:17:48;1.10;;;0.65;;
48014;SDS011;33780;51.034;7.120;2022-07-04T01:20:14;2.60;;;0.80;;
48014;SDS011;33780;51.034;7.120;2022-07-04T01:22:40;1.20;;;0.80;;
48014;SDS011;33780;51.034;7.120;2022-07-04T01:25:06;1.45;;;0.88;;
48014;SDS011;33780;51.034;7.120;2022-07-04T01:27:33;2.45;;;0.88;;
48014;SDS011;33780;51.034;7.120;2022-07-04T01:29:58;3.45;;;1.17;;
48014;SDS011;33780;51.034;7.120;2022-07-04T01:32:23;1.35;;;0.80;;
48014;SDS011;33780;51.034;7.120;2022-07-04T01:34:49;1.98;;;0.80;;
48014;SDS011;33780;51.034;7.120;2022-07-04T01:37:14;2.63;;;0.80;;
48014;SDS011;33780;51.034;7.120;2022-07-04T01:39:46;1.40;;;0.90;;
48014;SDS011;33780;51.034;7.120;2022-07-04T01:42:11;3.60;;;0.90;;
48014;SDS011;33780;51.034;7.120;2022-07-04T01:44:36;1.73;;;0.80;;
48014;SDS011;33780;51.034;7.120;2022-07-04T01:47:02;1.48;;;0.90;;
48014;SDS011;33780;51.034;7.120;2022-07-04T01:49:28;3.05;;;0.70;;
48014;SDS011;33780;51.034;7.120;2022-07-04T01:51:53;2.25;;;0.98;;
48014;SDS011;33780;51.034;7.120;2022-07-04T01:54:19;2.75;;;0.80;;
48014;SDS011;33780;51.034;7.120;2022-07-04T01:56:44;1.15;;;0.70;;
48014;SDS011;33780;51.034;7.120;2022-07-04T01:59:10;1.55;;;0.88;;
48014;SDS011;33780;51.034;7.120;2022-07-04T02:01:35;1.70;;;0.90;;
48014;SDS011;33780;51.034;7.120;2022-07-04T02:04:02;1.85;;;0.90;;
48014;SDS011;33780;51.034;7.120;2022-07-04T02:06:29;2.58;;;1.10;;
48014;SDS011;33780;51.034;7.120;2022-07-04T02:08:55;3.35;;;0.88;;
48014;SDS011;33780;51.034;7.120;2022-07-04T02:11:39;1.50;;;0.90;;
48014;SDS011;33780;51.034;7.120;2022-07-04T02:14:23;2.03;;;0.85;;
48014;SDS011;33780;51.034;7.120;2022-07-04T02:16:49;2.15;;;0.80;;
48014;SDS011;33780;51.034;7.120;2022-07-04T02:19:15;1.35;;;0.70;;
48014;SDS011;33780;51.034;7.120;2022-07-04T02:21:40;2.78;;;0.90;;
48014;SDS011;33780;51.034;7.120;2022-07-04T02:24:08;1.75;;;0.80;;
48014;SDS011;33780;51.034;7.120;2022-07-04T02:26:34;1.10;;;0.80;;
48014;SDS011;33780;51.034;7.120;2022-07-04T02:28:59;1.77;;;0.90;;
48014;SDS011;33780;51.034;7.120;2022-07-04T02:31:25;2.33;;;0.80;;
48014;SDS011;33780;51.034;7.120;2022-07-04T02:33:51;1.33;;;0.80;;
48014;SDS011;33780;51.034;7.120;2022-07-04T02:36:16;1.40;;;0.80;;
48014;SDS011;33780;51.034;7.120;2022-07-04T02:38:42;1.60;;;0.80;;
48014;SDS011;33780;51.034;7.120;2022-07-04T02:41:07;2.58;;;0.90;;
48014;SDS011;33780;51.034;7.120;2022-07-04T02:43:32;1.40;;;0.70;;
48014;SDS011;33780;51.034;7.120;2022-07-04T02:45:57;1.50;;;0.80;;
48014;SDS011;33780;51.034;7.120;2022-07-04T02:48:23;1.92;;;0.80;;
48014;SDS011;33780;51.034;7.120;2022-07-04T02:50:48;1.23;;;0.65;;
48014;SDS011;33780;51.034;7.120;2022-07-04T02:53:13;1.38;;;0.82;;
48014;SDS011;33780;51.034;7.120;2022-07-04T02:55:38;3.28;;;0.80;;
48014;SDS011;33780;51.034;7.120;2022-07-04T02:58:04;1.20;;;0.80;;
48014;SDS011;33780;51.034;7.120;2022-07-04T03:00:29;1.42;;;0.82;;
48014;SDS011;33780;51.034;7.120;2022-07-04T03:02:55;1.70;;;0.80;;
48014;SDS011;33780;51.034;7.120;2022-07-04T03:05:20;3.53;;;1.00;;
48014;SDS011;33780;51.034;7.120;2022-07-04T03:07:45;1.60;;;0.80;;
48014;SDS011;33780;51.034;7.120;2022-07-04T03:10:14;1.52;;;1.00;;
48014;SDS011;33780;51.034;7.120;2022-07-04T03:12:39;1.63;;;0.65;;
48014;SDS011;33780;51.034;7.120;2022-07-04T03:15:05;3.75;;;0.88;;
48014;SDS011;33780;51.034;7.120;2022-07-04T03:17:30;2.58;;;0.82;;
48014;SDS011;33780;51.034;7.120;2022-07-04T03:19:56;1.38;;;0.70;;
48014;SDS011;33780;51.034;7.120;2022-07-04T03:22:22;2.00;;;0.80;;
48014;SDS011;33780;51.034;7.120;2022-07-04T03:24:47;2.78;;;1.00;;
48014;SDS011;33780;51.034;7.120;2022-07-04T03:27:13;1.48;;;0.80;;
48014;SDS011;33780;51.034;7.120;2022-07-04T03:29:38;1.23;;;0.70;;
48014;SDS011;33780;51.034;7.120;2022-07-04T03:32:04;3.78;;;1.00;;
48014;SDS011;33780;51.034;7.120;2022-07-04T03:34:30;2.40;;;1.08;;
48014;SDS011;33780;51.034;7.120;2022-07-04T03:36:55;1.40;;;0.80;;
48014;SDS011;33780;51.034;7.120;2022-07-04T03:39:20;1.25;;;0.77;;
48014;SDS011;33780;51.034;7.120;2022-07-04T03:41:46;1.48;;;0.80;;
48014;SDS011;33780;51.034;7.120;2022-07-04T03:44:12;1.63;;;0.70;;
48014;SDS011;33780;51.034;7.120;2022-07-04T03:46:37;1.60;;;0.80;;
48014;SDS011;33780;51.034;7.120;2022-07-04T03:49:02;1.77;;;0.80;;
48014;SDS011;33780;51.034;7.120;2022-07-04T03:51:28;1.75;;;0.95;;
48014;SDS011;33780;51.034;7.120;2022-07-04T03:53:53;1.63;;;0.80;;
48014;SDS011;33780;51.034;7.120;2022-07-04T03:56:18;1.63;;;1.15;;
48014;SDS011;33780;51.034;7.120;2022-07-04T03:58:43;1.48;;;0.90;;
48014;SDS011;33780;51.034;7.120;2022-07-04T04:01:13;4.32;;;0.95;;
48014;SDS011;33780;51.034;7.120;2022-07-04T04:03:39;1.50;;;0.80;;
48014;SDS011;33780;51.034;7.120;2022-07-04T04:06:23;2.10;;;0.90;;
48014;SDS011;33780;51.034;7.120;2022-07-04T04:08:48;2.70;;;0.95;;
48014;SDS011;33780;51.034;7.120;2022-07-04T04:11:14;1.45;;;0.82;;
48014;SDS011;33780;51.034;7.120;2022-07-04T04:13:39;1.65;;;0.90;;
48014;SDS011;33780;51.034;7.120;2022-07-04T04:16:04;1.98;;;0.98;;
48014;SDS011;33780;51.034;7.120;2022-07-04T04:18:29;1.63;;;1.00;;
48014;SDS011;33780;51.034;7.120;2022-07-04T04:20:55;1.40;;;0.90;;
48014;SDS011;33780;51.034;7.120;2022-07-04T04:23:20;1.73;;;0.70;;
48014;SDS011;33780;51.034;7.120;2022-07-04T04:25:45;2.60;;;1.05;;
48014;SDS011;33780;51.034;7.120;2022-07-04T04:28:11;1.70;;;0.80;;
48014;SDS011;33780;51.034;7.120;2022-07-04T04:30:36;1.38;;;0.70;;
48014;SDS011;33780;51.034;7.120;2022-07-04T04:33:01;2.00;;;0.80;;
48014;SDS011;33780;51.034;7.120;2022-07-04T04:35:26;1.90;;;0.80;;
48014;SDS011;33780;51.034;7.120;2022-07-04T04:37:52;2.05;;;0.88;;
48014;SDS011;33780;51.034;7.120;2022-07-04T04:40:17;1.40;;;0.90;;
48014;SDS011;33780;51.034;7.120;2022-07-04T04:42:42;2.03;;;1.02;;
48014;SDS011;33780;51.034;7.120;2022-07-04T04:45:08;1.25;;;0.70;;
48014;SDS011;33780;51.034;7.120;2022-07-04T04:47:34;1.13;;;0.70;;
48014;SDS011;33780;51.034;7.120;2022-07-04T04:49:59;1.80;;;1.00;;
48014;SDS011;33780;51.034;7.120;2022-07-04T04:52:25;1.20;;;0.70;;
48014;SDS011;33780;51.034;7.120;2022-07-04T04:54:50;2.60;;;0.90;;
48014;SDS011;33780;51.034;7.120;2022-07-04T04:57:16;2.45;;;0.90;;
48014;SDS011;33780;51.034;7.120;2022-07-04T04:59:41;1.40;;;0.90;;
48014;SDS011;33780;51.034;7.120;2022-07-04T05:02:07;1.60;;;0.80;;
48014;SDS011;33780;51.034;7.120;2022-07-04T05:04:33;1.80;;;0.88;;
48014;SDS011;33780;51.034;7.120;2022-07-04T05:06:58;1.60;;;0.80;;
48014;SDS011;33780;51.034;7.120;2022-07-04T05:09:23;2.00;;;0.98;;
48014;SDS011;33780;51.034;7.120;2022-07-04T05:11:49;1.25;;;0.85;;
48014;SDS011;33780;51.034;7.120;2022-07-04T05:14:15;1.38;;;0.75;;
48014;SDS011;33780;51.034;7.120;2022-07-04T05:16:40;1.90;;;0.90;;
48014;SDS011;33780;51.034;7.120;2022-07-04T05:19:06;1.50;;;0.90;;
48014;SDS011;33780;51.034;7.120;2022-07-04T05:21:31;2.08;;;0.70;;
48014;SDS011;33780;51.034;7.120;2022-07-04T05:23:57;1.55;;;0.80;;
48014;SDS011;33780;51.034;7.120;2022-07-04T05:26:22;4.65;;;0.90;;
48014;SDS011;33780;51.034;7.120;2022-07-04T05:28:48;2.75;;;0.82;;
48014;SDS011;33780;51.034;7.120;2022-07-04T05:31:13;2.45;;;1.35;;
48014;SDS011;33780;51.034;7.120;2022-07-04T05:33:38;2.97;;;0.90;;
48014;SDS011;33780;51.034;7.120;2022-07-04T05:36:04;2.33;;;0.90;;
48014;SDS011;33780;51.034;7.120;2022-07-04T05:38:29;1.40;;;0.80;;
48014;SDS011;33780;51.034;7.120;2022-07-04T05:40:54;2.85;;;1.20;;
48014;SDS011;33780;51.034;7.120;2022-07-04T05:43:20;1.88;;;1.00;;
48014;SDS011;33780;51.034;7.120;2022-07-04T05:45:46;1.65;;;0.80;;
48014;SDS011;33780;51.034;7.120;2022-07-04T05:48:13;1.90;;;0.90;;
48014;SDS011;33780;51.034;7.120;2022-07-04T05:50:38;2.95;;;0.80;;
48014;SDS011;33780;51.034;7.120;2022-07-04T05:53:04;1.50;;;0.90;;
48014;SDS011;33780;51.034;7.120;2022-07-04T05:55:29;1.80;;;0.98;;
48014;SDS011;33780;51.034;7.120;2022-07-04T05:57:55;2.10;;;0.90;;
48014;SDS011;33780;51.034;7.120;2022-07-04T06:00:20;1.42;;;0.90;;
48014;SDS011;33780;51.034;7.120;2022-07-04T06:02:45;2.70;;;0.95;;
48014;SDS011;33780;51.034;7.120;2022-07-04T06:05:10;3.58;;;0.90;;
48014;SDS011;33780;51.034;7.120;2022-07-04T06:07:36;2.47;;;1.20;;
48014;SDS011;33780;51.034;7.120;2022-07-04T06:10:02;1.60;;;1.00;;
48014;SDS011;33780;51.034;7.120;2022-07-04T06:12:28;1.75;;;0.98;;
48014;SDS011;33780;51.034;7.120;2022-07-04T06:14:54;2.28;;;0.80;;
48014;SDS011;33780;51.034;7.120;2022-07-04T06:17:19;1.60;;;1.00;;
48014;SDS011;33780;51.034;7.120;2022-07-04T06:19:44;1.77;;;1.00;;
48014;SDS011;33780;51.034;7.120;2022-07-04T06:22:10;3.00;;;0.95;;
48014;SDS011;33780;51.034;7.120;2022-07-04T06:24:35;1.90;;;1.20;;
48014;SDS011;33780;51.034;7.120;2022-07-04T06:27:01;2.17;;;0.90;;
48014;SDS011;33780;51.034;7.120;2022-07-04T06:29:28;2.10;;;1.15;;
48014;SDS011;33780;51.034;7.120;2022-07-04T06:31:53;4.20;;;1.50;;
48014;SDS011;33780;51.034;7.120;2022-07-04T06:34:18;2.58;;;1.20;;
48014;SDS011;33780;51.034;7.120;2022-07-04T06:37:02;1.83;;;1.10;;
48014;SDS011;33780;51.034;7.120;2022-07-04T06:39:28;3.03;;;1.38;;
48014;SDS011;33780;51.034;7.120;2022-07-04T06:41:53;3.25;;;1.55;;
48014;SDS011;33780;51.034;7.120;2022-07-04T06:44:19;3.05;;;1.60;;
48014;SDS011;33780;51.034;7.120;2022-07-04T06:46:44;4.75;;;1.50;;
48014;SDS011;33780;51.034;7.120;2022-07-04T06:49:11;4.15;;;1.70;;
48014;SDS011;33780;51.034;7.120;2022-07-04T06:51:36;5.07;;;2.03;;
48014;SDS011;33780;51.034;7.120;2022-07-04T06:54:01;4.38;;;1.65;;
48014;SDS011;33780;51.034;7.120;2022-07-04T06:56:27;4.15;;;1.40;;
48014;SDS011;33780;51.034;7.120;2022-07-04T06:58:52;4.07;;;1.50;;
48014;SDS011;33780;51.034;7.120;2022-07-04T07:01:20;3.38;;;1.77;;
48014;SDS011;33780;51.034;7.120;2022-07-04T07:03:46;4.47;;;1.70;;
48014;SDS011;33780;51.034;7.120;2022-07-04T07:06:11;3.75;;;1.80;;
48014;SDS011;33780;51.034;7.120;2022-07-04T07:08:36;2.88;;;1.70;;
48014;SDS011;33780;51.034;7.120;2022-07-04T07:11:02;3.00;;;1.60;;
48014;SDS011;33780;51.034;7.120;2022-07-04T07:13:40;3.63;;;1.55;;
48014;SDS011;33780;51.034;7.120;2022-07-04T07:16:09;4.65;;;1.40;;
48014;SDS011;33780;51.034;7.120;2022-07-04T07:18:35;4.75;;;1.42;;
48014;SDS011;33780;51.034;7.120;2022-07-04T07:21:00;3.88;;;1.30;;
48014;SDS011;33780;51.034;7.120;2022-07-04T07:23:26;2.70;;;1.20;;
48014;SDS011;33780;51.034;7.120;2022-07-04T07:25:51;4.28;;;1.45;;
48014;SDS011;33780;51.034;7.120;2022-07-04T07:28:16;4.70;;;1.50;;
48014;SDS011;33780;51.034;7.120;2022-07-04T07:30:43;2.22;;;1.33;;
48014;SDS011;33780;51.034;7.120;2022-07-04T07:33:08;2.45;;;1.30;;
48014;SDS011;33780;51.034;7.120;2022-07-04T07:35:34;3.17;;;1.30;;
48014;SDS011;33780;51.034;7.120;2022-07-04T07:37:59;2.67;;;1.15;;
48014;SDS011;33780;51.034;7.120;2022-07-04T07:40:24;3.70;;;1.27;;
48014;SDS011;33780;51.034;7.120;2022-07-04T07:42:50;2.33;;;1.10;;
48014;SDS011;33780;51.034;7.120;2022-07-04T07:45:15;3.40;;;1.20;;
48014;SDS011;33780;51.034;7.120;2022-07-04T07:47:40;2.30;;;1.15;;
48014;SDS011;33780;51.034;7.120;2022-07-04T07:50:06;2.53;;;1.00;;
48014;SDS011;33780;51.034;7.120;2022-07-04T07:52:32;3.97;;;1.40;;
48014;SDS011;33780;51.034;7.120;2022-07-04T07:54:57;3.10;;;0.90;;
48014;SDS011;33780;51.034;7.120;2022-07-04T07:57:23;2.40;;;1.20;;
48014;SDS011;33780;51.034;7.120;2022-07-04T07:59:48;2.30;;;1.10;;
48014;SDS011;33780;51.034;7.120;2022-07-04T08:02:13;2.30;;;1.30;;
48014;SDS011;33780;51.034;7.120;2022-07-04T08:04:39;3.97;;;1.08;;
48014;SDS011;33780;51.034;7.120;2022-07-04T08:07:06;2.63;;;1.33;;
48014;SDS011;33780;51.034;7.120;2022-07-04T08:09:33;2.58;;;1.23;;
48014;SDS011;33780;51.034;7.120;2022-07-04T08:11:59;6.80;;;1.40;;
48014;SDS011;33780;51.034;7.120;2022-07-04T08:14:26;5.03;;;1.67;;
48014;SDS011;33780;51.034;7.120;2022-07-04T08:16:52;3.50;;;1.55;;
48014;SDS011;33780;51.034;7.120;2022-07-04T08:19:18;2.88;;;1.65;;
48014;SDS011;33780;51.034;7.120;2022-07-04T08:21:44;3.15;;;1.50;;
48014;SDS011;33780;51.034;7.120;2022-07-04T08:24:11;3.47;;;1.45;;
48014;SDS011;33780;51.034;7.120;2022-07-04T08:26:37;3.42;;;1.20;;
48014;SDS011;33780;51.034;7.120;2022-07-04T08:29:03;3.28;;;1.33;;
48014;SDS011;33780;51.034;7.120;2022-07-04T08:31:28;5.82;;;1.40;;
48014;SDS011;33780;51.034;7.120;2022-07-04T08:33:53;3.88;;;1.10;;
48014;SDS011;33780;51.034;7.120;2022-07-04T08:36:19;2.30;;;0.98;;
48014;SDS011;33780;51.034;7.120;2022-07-04T08:38:45;3.33;;;1.05;;
48014;SDS011;33780;51.034;7.120;2022-07-04T08:41:10;3.55;;;1.10;;
48014;SDS011;33780;51.034;7.120;2022-07-04T08:43:37;3.15;;;0.98;;
48014;SDS011;33780;51.034;7.120;2022-07-04T08:46:04;2.88;;;0.90;;
48014;SDS011;33780;51.034;7.120;2022-07-04T08:48:31;2.65;;;0.70;;
48014;SDS011;33780;51.034;7.120;2022-07-04T08:51:08;3.95;;;0.85;;
48014;SDS011;33780;51.034;7.120;2022-07-04T08:53:38;3.08;;;1.00;;
48014;SDS011;33780;51.034;7.120;2022-07-04T08:56:05;4.05;;;0.90;;
48014;SDS011;33780;51.034;7.120;2022-07-04T08:58:52;3.10;;;0.82;;
48014;SDS011;33780;51.034;7.120;2022-07-04T09:01:20;3.75;;;0.80;;
48014;SDS011;33780;51.034;7.120;2022-07-04T09:03:45;1.90;;;0.70;;
48014;SDS011;33780;51.034;7.120;2022-07-04T09:06:12;1.25;;;0.65;;
48014;SDS011;33780;51.034;7.120;2022-07-04T09:08:38;3.25;;;0.70;;
48014;SDS011;33780;51.034;7.120;2022-07-04T09:11:05;1.63;;;0.68;;
48014;SDS011;33780;51.034;7.120;2022-07-04T09:13:30;1.20;;;0.50;;
48014;SDS011;33780;51.034;7.120;2022-07-04T09:15:56;3.33;;;0.60;;
48014;SDS011;33780;51.034;7.120;2022-07-04T09:18:23;2.20;;;0.65;;
48014;SDS011;33780;51.034;7.120;2022-07-04T09:20:51;1.65;;;0.70;;
48014;SDS011;33780;51.034;7.120;2022-07-04T09:23:18;1.42;;;0.47;;
48014;SDS011;33780;51.034;7.120;2022-07-04T09:25:46;1.88;;;0.68;;
48014;SDS011;33780;51.034;7.120;2022-07-04T09:28:12;1.63;;;0.60;;
48014;SDS011;33780;51.034;7.120;2022-07-04T09:30:50;2.83;;;0.60;;
48014;SDS011;33780;51.034;7.120;2022-07-04T09:33:16;1.30;;;0.60;;
48014;SDS011;33780;51.034;7.120;2022-07-04T09:35:43;1.63;;;0.52;;
48014;SDS011;33780;51.034;7.120;2022-07-04T09:38:09;1.10;;;0.50;;
48014;SDS011;33780;51.034;7.120;2022-07-04T09:40:37;0.90;;;0.40;;
48014;SDS011;33780;51.034;7.120;2022-07-04T09:43:23;1.02;;;0.50;;
48014;SDS011;33780;51.034;7.120;2022-07-04T09:45:53;0.73;;;0.40;;
48014;SDS011;33780;51.034;7.120;2022-07-04T09:48:22;1.10;;;0.60;;
48014;SDS011;33780;51.034;7.120;2022-07-04T09:50:48;1.23;;;0.50;;
48014;SDS011;33780;51.034;7.120;2022-07-04T09:53:14;2.00;;;0.60;;
48014;SDS011;33780;51.034;7.120;2022-07-04T09:55:39;1.20;;;0.60;;
48014;SDS011;33780;51.034;7.120;2022-07-04T09:58:09;1.98;;;0.88;;
48014;SDS011;33780;51.034;7.120;2022-07-04T10:00:40;1.98;;;0.50;;
48014;SDS011;33780;51.034;7.120;2022-07-04T10:03:16;1.17;;;0.50;;
48014;SDS011;33780;51.034;7.120;2022-07-04T10:08:39;2.13;;;0.43;;
48014;SDS011;33780;51.034;7.120;2022-07-04T10:11:05;1.90;;;0.50;;
48014;SDS011;33780;51.034;7.120;2022-07-04T10:13:32;4.15;;;0.60;;
48014;SDS011;33780;51.034;7.120;2022-07-04T10:15:57;1.52;;;0.73;;
48014;SDS011;33780;51.034;7.120;2022-07-04T10:18:23;2.13;;;0.60;;
48014;SDS011;33780;51.034;7.120;2022-07-04T10:20:50;1.75;;;0.43;;
48014;SDS011;33780;51.034;7.120;2022-07-04T10:23:16;1.80;;;0.60;;
48014;SDS011;33780;51.034;7.120;2022-07-04T10:25:43;1.63;;;0.40;;
48014;SDS011;33780;51.034;7.120;2022-07-04T10:28:11;2.13;;;0.70;;
48014;SDS011;33780;51.034;7.120;2022-07-04T10:30:37;1.30;;;0.60;;
48014;SDS011;33780;51.034;7.120;2022-07-04T10:33:05;1.27;;;0.60;;
48014;SDS011;33780;51.034;7.120;2022-07-04T10:38:28;2.38;;;0.50;;
48014;SDS011;33780;51.034;7.120;2022-07-04T10:41:00;1.77;;;0.55;;
48014;SDS011;33780;51.034;7.120;2022-07-04T10:48:28;2.22;;;0.70;;
48014;SDS011;33780;51.034;7.120;2022-07-04T10:51:12;2.35;;;0.57;;
48014;SDS011;33780;51.034;7.120;2022-07-04T10:54:03;1.88;;;0.60;;
48014;SDS011;33780;51.034;7.120;2022-07-04T10:56:37;1.80;;;0.50;;
48014;SDS011;33780;51.034;7.120;2022-07-04T10:59:11;1.15;;;0.40;;
48014;SDS011;33780;51.034;7.120;2022-07-04T11:07:20;1.52;;;0.55;;
48014;SDS011;33780;51.034;7.120;2022-07-04T11:10:17;1.45;;;0.50;;
48014;SDS011;33780;51.034;7.120;2022-07-04T11:17:50;2.33;;;0.45;;
48014;SDS011;33780;51.034;7.120;2022-07-04T11:20:17;1.20;;;0.50;;
48014;SDS011;33780;51.034;7.120;2022-07-04T11:22:43;3.08;;;0.60;;
48014;SDS011;33780;51.034;7.120;2022-07-04T11:25:10;2.10;;;0.60;;
48014;SDS011;33780;51.034;7.120;2022-07-04T11:27:36;1.60;;;0.65;;
48014;SDS011;33780;51.034;7.120;2022-07-04T11:30:05;1.50;;;0.52;;
48014;SDS011;33780;51.034;7.120;2022-07-04T11:32:32;0.90;;;0.45;;
48014;SDS011;33780;51.034;7.120;2022-07-04T11:34:59;2.63;;;0.60;;
48014;SDS011;33780;51.034;7.120;2022-07-04T11:37:24;1.63;;;0.50;;
48014;SDS011;33780;51.034;7.120;2022-07-04T11:39:50;5.97;;;0.65;;
48014;SDS011;33780;51.034;7.120;2022-07-04T11:42:16;3.17;;;0.60;;
48014;SDS011;33780;51.034;7.120;2022-07-04T11:45:00;1.88;;;0.50;;
48014;SDS011;33780;51.034;7.120;2022-07-04T11:47:34;1.50;;;0.50;;
48014;SDS011;33780;51.034;7.120;2022-07-04T11:50:01;1.65;;;0.40;;
48014;SDS011;33780;51.034;7.120;2022-07-04T11:52:28;2.08;;;0.40;;
48014;SDS011;33780;51.034;7.120;2022-07-04T11:54:55;1.10;;;0.43;;
48014;SDS011;33780;51.034;7.120;2022-07-04T11:57:22;2.17;;;0.50;;
48014;SDS011;33780;51.034;7.120;2022-07-04T12:00:30;1.23;;;0.30;;
48014;SDS011;33780;51.034;7.120;2022-07-04T12:02:38;1.08;;;0.50;;
48014;SDS011;33780;51.034;7.120;2022-07-04T12:05:10;1.20;;;0.40;;
48014;SDS011;33780;51.034;7.120;2022-07-04T12:07:37;2.15;;;0.68;;
48014;SDS011;33780;51.034;7.120;2022-07-04T12:10:08;1.73;;;0.50;;
48014;SDS011;33780;51.034;7.120;2022-07-04T12:12:50;0.82;;;0.50;;
48014;SDS011;33780;51.034;7.120;2022-07-04T12:15:18;2.28;;;0.50;;
48014;SDS011;33780;51.034;7.120;2022-07-04T12:17:44;1.05;;;0.50;;
48014;SDS011;33780;51.034;7.120;2022-07-04T12:20:17;1.90;;;0.50;;
48014;SDS011;33780;51.034;7.120;2022-07-04T12:22:44;2.45;;;0.60;;
48014;SDS011;33780;51.034;7.120;2022-07-04T12:25:26;1.80;;;0.55;;
48014;SDS011;33780;51.034;7.120;2022-07-04T12:28:02;0.90;;;0.57;;
48014;SDS011;33780;51.034;7.120;2022-07-04T12:30:33;1.23;;;0.63;;
48014;SDS011;33780;51.034;7.120;2022-07-04T12:33:04;1.80;;;0.55;;
48014;SDS011;33780;51.034;7.120;2022-07-04T12:35:32;1.70;;;0.50;;
48014;SDS011;33780;51.034;7.120;2022-07-04T12:38:06;1.95;;;0.52;;
48014;SDS011;33780;51.034;7.120;2022-07-04T12:40:33;1.40;;;0.70;;
48014;SDS011;33780;51.034;7.120;2022-07-04T12:43:00;1.95;;;0.50;;
48014;SDS011;33780;51.034;7.120;2022-07-04T12:45:26;1.67;;;0.60;;
48014;SDS011;33780;51.034;7.120;2022-07-04T12:48:13;1.30;;;0.60;;
48014;SDS011;33780;51.034;7.120;2022-07-04T12:50:42;1.85;;;0.60;;
48014;SDS011;33780;51.034;7.120;2022-07-04T12:53:08;2.03;;;0.60;;
48014;SDS011;33780;51.034;7.120;2022-07-04T12:55:34;3.55;;;0.70;;
48014;SDS011;33780;51.034;7.120;2022-07-04T12:58:03;1.23;;;0.52;;
48014;SDS011;33780;51.034;7.120;2022-07-04T13:00:29;2.67;;;0.70;;
48014;SDS011;33780;51.034;7.120;2022-07-04T13:02:54;1.30;;;0.47;;
48014;SDS011;33780;51.034;7.120;2022-07-04T13:05:19;2.25;;;0.50;;
48014;SDS011;33780;51.034;7.120;2022-07-04T13:07:45;2.40;;;0.50;;
48014;SDS011;33780;51.034;7.120;2022-07-04T13:10:11;3.30;;;0.93;;
48014;SDS011;33780;51.034;7.120;2022-07-04T13:12:37;1.10;;;0.50;;
48014;SDS011;33780;51.034;7.120;2022-07-04T13:15:02;0.98;;;0.40;;
48014;SDS011;33780;51.034;7.120;2022-07-04T13:17:29;1.67;;;0.50;;
48014;SDS011;33780;51.034;7.120;2022-07-04T13:19:55;1.38;;;0.65;;
48014;SDS011;33780;51.034;7.120;2022-07-04T13:22:21;1.70;;;0.65;;
48014;SDS011;33780;51.034;7.120;2022-07-04T13:24:48;1.60;;;0.68;;
48014;SDS011;33780;51.034;7.120;2022-07-04T13:27:14;1.40;;;0.60;;
48014;SDS011;33780;51.034;7.120;2022-07-04T13:29:40;1.17;;;0.50;;
48014;SDS011;33780;51.034;7.120;2022-07-04T13:32:06;1.75;;;0.47;;
48014;SDS011;33780;51.034;7.120;2022-07-04T13:34:31;4.70;;;1.20;;
48014;SDS011;33780;51.034;7.120;2022-07-04T13:36:56;2.28;;;0.50;;
48014;SDS011;33780;51.034;7.120;2022-07-04T13:39:22;1.95;;;0.60;;
48014;SDS011;33780;51.034;7.120;2022-07-04T13:41:48;1.30;;;0.68;;
48014;SDS011;33780;51.034;7.120;2022-07-04T13:44:14;1.25;;;0.50;;
48014;SDS011;33780;51.034;7.120;2022-07-04T13:46:41;1.70;;;0.60;;
48014;SDS011;33780;51.034;7.120;2022-07-04T13:49:07;1.45;;;0.63;;
48014;SDS011;33780;51.034;7.120;2022-07-04T13:51:32;1.42;;;0.60;;
48014;SDS011;33780;51.034;7.120;2022-07-04T13:53:58;1.08;;;0.50;;
48014;SDS011;33780;51.034;7.120;2022-07-04T13:56:23;2.05;;;0.50;;
48014;SDS011;33780;51.034;7.120;2022-07-04T13:58:49;2.35;;;0.60;;
48014;SDS011;33780;51.034;7.120;2022-07-04T14:01:14;2.63;;;0.50;;
48014;SDS011;33780;51.034;7.120;2022-07-04T14:03:42;1.67;;;0.57;;
48014;SDS011;33780;51.034;7.120;2022-07-04T14:06:08;1.92;;;0.70;;
48014;SDS011;33780;51.034;7.120;2022-07-04T14:08:34;1.65;;;0.50;;
48014;SDS011;33780;51.034;7.120;2022-07-04T14:11:00;1.60;;;0.60;;
48014;SDS011;33780;51.034;7.120;2022-07-04T14:13:25;2.65;;;0.60;;
48014;SDS011;33780;51.034;7.120;2022-07-04T14:15:51;3.60;;;0.60;;
48014;SDS011;33780;51.034;7.120;2022-07-04T14:18:16;2.55;;;0.70;;
48014;SDS011;33780;51.034;7.120;2022-07-04T14:20:42;1.55;;;0.50;;
48014;SDS011;33780;51.034;7.120;2022-07-04T14:23:08;2.08;;;0.60;;
48014;SDS011;33780;51.034;7.120;2022-07-04T14:25:34;1.00;;;0.50;;
48014;SDS011;33780;51.034;7.120;2022-07-04T14:27:59;1.88;;;0.60;;
48014;SDS011;33780;51.034;7.120;2022-07-04T14:30:25;1.65;;;0.60;;
48014;SDS011;33780;51.034;7.120;2022-07-04T14:32:50;3.35;;;1.00;;
48014;SDS011;33780;51.034;7.120;2022-07-04T14:35:16;2.60;;;0.68;;
48014;SDS011;33780;51.034;7.120;2022-07-04T14:37:42;1.58;;;0.60;;
48014;SDS011;33780;51.034;7.120;2022-07-04T14:40:07;2.58;;;0.82;;
48014;SDS011;33780;51.034;7.120;2022-07-04T14:42:33;1.40;;;0.60;;
48014;SDS011;33780;51.034;7.120;2022-07-04T14:44:59;1.65;;;0.93;;
48014;SDS011;33780;51.034;7.120;2022-07-04T14:47:24;1.60;;;0.70;;
48014;SDS011;33780;51.034;7.120;2022-07-04T14:49:49;3.28;;;0.70;;
48014;SDS011;33780;51.034;7.120;2022-07-04T14:52:15;1.67;;;1.13;;
48014;SDS011;33780;51.034;7.120;2022-07-04T14:54:40;2.42;;;0.70;;
48014;SDS011;33780;51.034;7.120;2022-07-04T14:57:05;1.25;;;0.70;;
48014;SDS011;33780;51.034;7.120;2022-07-04T14:59:32;1.10;;;0.60;;
48014;SDS011;33780;51.034;7.120;2022-07-04T15:02:01;1.63;;;0.70;;
48014;SDS011;33780;51.034;7.120;2022-07-04T15:04:27;1.73;;;0.70;;
48014;SDS011;33780;51.034;7.120;2022-07-04T15:06:52;4.45;;;0.70;;